Terminal Aerodrome Forecast
Issued by NWS North Platte, NE

Home | Current Version | Previous Version | Graphics & Text | Print | Product List | Glossary On
Versions: 1 2 3 4 5 6 7 8 9 10 11 12 13 14 15 16 17 18 19 20 21 22
152
FTUS43 KLBF 260642 AAA
TAFVTN
TAF AMD
KVTN 260642Z 2607/2706 16012KT P6SM OVC002
     FM260900 15009KT 4SM BR OVC002
      TEMPO 2612/2615 1/2SM FG OVC002
     FM261500 16006KT 5SM BR OVC010
     FM261700 14005KT P6SM BKN050
     FM262000 04005KT P6SM BKN100
     FM262300 03008KT P6SM BKN080=

USA.gov is the U.S. government's official web portal to all federal, state and local government web resources and services.